createdAt,value
2019-04-14T00:01:13.087Z,20.63
2019-04-14T00:06:18.419Z,21.17
2019-04-14T00:11:23.420Z,17.93
2019-04-14T00:16:29.106Z,23.13
2019-04-14T00:21:35.145Z,21.13
2019-04-14T00:26:40.194Z,20.60
2019-04-14T00:31:46.180Z,20.90
2019-04-14T00:37:12.004Z,22.23
2019-04-14T00:42:42.990Z,24.13
2019-04-14T00:47:59.506Z,24.50
2019-04-14T00:52:59.004Z,27.83
2019-04-14T00:58:03.839Z,22.63
2019-04-14T01:03:09.246Z,24.40
2019-04-14T01:08:14.153Z,22.10
2019-04-14T01:13:20.449Z,23.10
2019-04-14T01:18:25.541Z,24.80
2019-04-14T01:23:32.562Z,21.47
2019-04-14T01:28:37.559Z,23.00
2019-04-14T01:33:44.442Z,21.60
2019-04-14T01:38:49.291Z,22.30
2019-04-14T01:43:56.061Z,22.03
2019-04-14T01:49:00.735Z,24.60
2019-04-14T01:54:17.036Z,21.57
2019-04-14T01:59:22.024Z,22.40
2019-04-14T02:04:27.458Z,23.37
2019-04-14T02:09:32.011Z,20.37
2019-04-14T02:14:38.676Z,20.53
2019-04-14T02:19:43.872Z,19.47
2019-04-14T02:24:52.713Z,19.37
2019-04-14T02:29:58.249Z,21.07
2019-04-14T02:45:57.814Z,23.30
2019-04-14T02:50:49.578Z,20.53
2019-04-14T02:56:08.222Z,20.60
2019-04-14T03:01:09.999Z,23.50
2019-04-14T03:11:21.179Z,18.80
2019-04-14T03:16:30.037Z,21.80
2019-04-14T03:22:05.121Z,20.83
2019-04-14T03:27:10.164Z,21.17
2019-04-14T03:32:23.187Z,20.30
2019-04-14T03:37:45.229Z,18.73
2019-04-14T03:42:41.661Z,25.30
2019-04-14T03:47:31.037Z,19.90
2019-04-14T03:52:55.787Z,21.10
2019-04-14T03:57:23.703Z,22.33
2019-04-14T04:02:29.341Z,21.40
2019-04-14T04:07:36.539Z,23.22
2019-04-14T04:12:42.113Z,17.80
2019-04-14T04:17:53.793Z,17.15
2019-04-14T04:23:20.478Z,22.67
2019-04-14T04:28:49.423Z,20.50
2019-04-14T04:34:14.647Z,21.07
2019-04-14T04:39:21.756Z,19.60
2019-04-14T04:44:26.924Z,20.25
2019-04-14T04:49:32.434Z,19.02
2019-04-14T04:54:38.452Z,21.65
2019-04-14T04:59:43.069Z,22.20
2019-04-14T05:04:48.394Z,17.92
2019-04-14T05:10:13.227Z,24.67
2019-04-14T05:15:40.302Z,22.80
2019-04-14T05:20:46.312Z,16.33
2019-04-14T05:25:51.731Z,20.80
2019-04-14T05:30:56.904Z,19.97
2019-04-14T05:36:02.119Z,20.57
2019-04-14T05:41:06.981Z,18.75
2019-04-14T05:46:12.078Z,17.97
2019-04-14T05:51:18.999Z,18.65
2019-04-14T05:56:23.141Z,22.65
2019-04-14T06:01:29.203Z,17.77
2019-04-14T06:06:33.908Z,15.30
2019-04-14T06:11:38.150Z,21.57
2019-04-14T06:16:43.224Z,19.47
2019-04-14T06:21:47.476Z,21.05
2019-04-14T06:26:52.476Z,20.90
2019-04-14T06:32:16.064Z,17.43
2019-04-14T06:37:26.580Z,20.60
2019-04-14T06:42:31.113Z,19.83
2019-04-14T06:47:35.811Z,23.70
2019-04-14T06:52:40.345Z,20.63
2019-04-14T06:57:46.329Z,21.53
2019-04-14T07:02:52.103Z,23.17
2019-04-14T07:07:57.965Z,22.07
2019-04-14T07:13:02.518Z,20.60
2019-04-14T07:18:12.073Z,20.20
2019-04-14T07:23:16.624Z,23.07
2019-04-14T07:28:22.476Z,20.00
2019-04-14T07:33:50.881Z,22.67
2019-04-14T07:39:09.871Z,23.87
2019-04-14T07:44:33.634Z,20.13
2019-04-14T07:50:13.915Z,19.33
2019-04-14T07:55:19.957Z,22.47
2019-04-14T08:00:42.204Z,26.40
2019-04-14T08:05:47.055Z,29.10
2019-04-14T08:10:52.796Z,29.97
2019-04-14T08:15:58.562Z,28.23
2019-04-14T08:21:03.198Z,31.13
2019-04-14T08:26:07.753Z,29.17
2019-04-14T08:31:13.435Z,38.20
2019-04-14T08:36:17.969Z,28.87
2019-04-14T08:41:24.014Z,27.93
2019-04-14T08:46:59.829Z,25.57
2019-04-14T08:52:32.640Z,28.47
2019-04-14T08:57:55.177Z,31.10
2019-04-14T09:03:11.776Z,29.30
2019-04-14T09:08:21.776Z,25.57
2019-04-14T09:13:26.310Z,26.10
2019-04-14T09:18:31.824Z,29.23
2019-04-14T09:23:36.345Z,27.77
2019-04-14T09:28:41.831Z,23.67
2019-04-14T09:33:46.609Z,24.93
2019-04-14T09:38:51.680Z,22.70
2019-04-14T09:43:56.202Z,10.83
2019-04-14T09:49:00.746Z,24.30
2019-04-14T09:54:05.278Z,17.30
2019-04-14T09:59:12.065Z,19.80
2019-04-14T10:04:17.059Z,14.37
2019-04-14T10:09:22.708Z,15.83
2019-04-14T10:14:27.374Z,16.90
2019-04-14T10:19:32.535Z,16.43
2019-04-14T10:24:37.082Z,17.50
2019-04-14T10:29:41.886Z,12.17
2019-04-14T10:34:46.881Z,15.00
2019-04-14T10:39:51.905Z,16.00
2019-04-14T10:44:56.429Z,12.93
2019-04-14T10:50:00.965Z,12.47
2019-04-14T10:55:05.524Z,12.23
2019-04-14T11:00:14.310Z,12.33
2019-04-14T11:05:18.930Z,8.93
2019-04-14T11:10:24.364Z,7.83
2019-04-14T11:15:28.894Z,5.17
2019-04-14T11:20:33.514Z,7.00
2019-04-14T11:25:38.017Z,7.77
2019-04-14T11:30:43.201Z,5.50
2019-04-14T11:36:09.917Z,3.10
2019-04-14T11:41:18.344Z,5.23
2019-04-14T11:46:23.013Z,4.50
2019-04-14T11:51:27.637Z,4.83
2019-04-14T11:56:32.221Z,4.90
2019-04-14T12:01:49.597Z,5.40
2019-04-14T12:07:08.091Z,4.43
2019-04-14T12:12:12.758Z,5.10
2019-04-14T12:17:17.477Z,3.47
2019-04-14T12:22:22.913Z,3.70
2019-04-14T12:27:27.451Z,4.83
2019-04-14T12:32:32.540Z,4.40
2019-04-14T12:37:38.906Z,3.60
2019-04-14T12:43:06.878Z,4.40
2019-04-14T12:48:33.693Z,5.20
2019-04-14T12:53:38.765Z,4.30
2019-04-14T12:58:53.498Z,3.63
2019-04-14T13:03:59.257Z,4.27
2019-04-14T13:09:04.187Z,2.60
2019-04-14T13:14:10.967Z,3.60
2019-04-14T13:19:15.492Z,4.57
2019-04-14T13:24:20.097Z,2.97
2019-04-14T13:29:24.712Z,3.20
2019-04-14T13:34:29.594Z,4.90
2019-04-14T13:39:34.134Z,4.57
2019-04-14T13:44:38.968Z,5.37
2019-04-14T13:49:43.816Z,5.33
2019-04-14T13:54:48.672Z,4.03
2019-04-14T13:59:53.190Z,5.97
2019-04-14T14:04:58.773Z,6.27
2019-04-14T14:10:03.599Z,4.10
2019-04-14T14:15:39.521Z,4.53
2019-04-14T14:21:03.206Z,6.93
2019-04-14T14:26:10.916Z,6.10
2019-04-14T14:31:15.553Z,5.70
2019-04-14T14:36:21.132Z,6.77
2019-04-14T14:41:25.736Z,6.63
2019-04-14T14:46:52.984Z,8.63
2019-04-14T14:52:05.184Z,6.97
2019-04-14T14:57:09.700Z,6.47
2019-04-14T15:02:14.350Z,6.60
2019-04-14T15:07:18.944Z,7.57
2019-04-14T15:12:23.471Z,5.10
2019-04-14T15:17:28.365Z,6.03
2019-04-14T15:22:32.902Z,4.27
2019-04-14T15:27:37.427Z,6.00
2019-04-14T15:32:41.985Z,4.90
2019-04-14T15:37:46.517Z,6.60
2019-04-14T15:42:51.109Z,4.57
2019-04-14T15:47:55.705Z,5.30
2019-04-14T15:53:00.244Z,5.37
2019-04-14T15:58:10.233Z,4.90
2019-04-14T16:03:46.208Z,3.30
2019-04-14T16:08:55.569Z,4.33
2019-04-14T16:14:19.408Z,3.30
2019-04-14T16:19:31.879Z,4.20
2019-04-14T16:24:37.824Z,6.00
2019-04-14T16:29:52.931Z,4.73
2019-04-14T16:35:20.541Z,6.20
2019-04-14T16:40:25.093Z,6.60
2019-04-14T16:45:31.381Z,7.07
2019-04-14T16:50:35.961Z,5.13
2019-04-14T16:55:59.842Z,8.50
2019-04-14T17:01:07.489Z,6.07
2019-04-14T17:06:12.753Z,6.80
2019-04-14T17:11:17.260Z,6.50
2019-04-14T17:16:46.346Z,6.73
2019-04-14T17:22:07.061Z,7.43
2019-04-14T17:27:32.086Z,5.93
2019-04-14T17:33:01.865Z,5.33
2019-04-14T17:38:21.879Z,7.23
2019-04-14T17:43:51.198Z,7.77
2019-04-14T17:49:23.808Z,8.20
2019-04-14T17:54:56.438Z,10.43
2019-04-14T18:00:12.201Z,10.77
2019-04-14T18:05:33.677Z,10.50
2019-04-14T18:10:52.448Z,10.43
2019-04-14T18:16:19.088Z,10.57
2019-04-14T18:21:23.710Z,10.50
2019-04-14T18:26:29.479Z,10.03
2019-04-14T18:31:42.233Z,9.70
2019-04-14T18:36:57.748Z,11.53
2019-04-14T18:42:27.362Z,11.20
2019-04-14T18:47:46.578Z,11.10
2019-04-14T18:53:00.425Z,9.87
2019-04-14T18:58:23.632Z,9.60
2019-04-14T19:03:28.286Z,10.97
2019-04-14T19:08:33.358Z,9.47
2019-04-14T19:13:38.089Z,10.57
2019-04-14T19:18:46.588Z,12.30
2019-04-14T19:23:54.893Z,12.00
2019-04-14T19:29:00.338Z,11.53
2019-04-14T19:34:04.856Z,12.27
2019-04-14T19:39:11.084Z,10.97
2019-04-14T19:44:15.708Z,14.00
2019-04-14T19:49:20.366Z,12.77
2019-04-14T19:54:24.936Z,10.57
2019-04-14T19:59:30.554Z,11.77
2019-04-14T20:04:35.118Z,13.13
2019-04-14T20:09:39.802Z,14.97
2019-04-14T20:14:44.566Z,12.47
2019-04-14T20:20:24.529Z,12.57
2019-04-14T20:25:54.560Z,15.97
2019-04-14T20:31:19.580Z,12.83
2019-04-14T20:36:24.746Z,13.47
2019-04-14T20:41:29.414Z,14.77
2019-04-14T20:46:34.033Z,16.20
2019-04-14T20:51:38.562Z,14.00
2019-04-14T20:56:44.444Z,16.43
2019-04-14T21:01:57.669Z,16.13
2019-04-14T21:07:16.085Z,17.33
2019-04-14T21:12:39.728Z,18.93
2019-04-14T21:17:56.439Z,15.97
2019-04-14T21:23:11.724Z,15.67
2019-04-14T21:28:36.869Z,19.93
2019-04-14T21:33:54.184Z,18.90
2019-04-14T21:39:18.129Z,16.63
2019-04-14T21:44:22.736Z,17.67
2019-04-14T21:49:28.960Z,17.87
2019-04-14T21:54:33.660Z,17.20
2019-04-14T21:59:55.583Z,16.23
2019-04-14T22:05:16.338Z,16.87
2019-04-14T22:10:37.918Z,19.53
2019-04-14T22:15:42.492Z,16.97
2019-04-14T22:20:48.542Z,17.60
2019-04-14T22:25:53.089Z,19.03
2019-04-14T22:30:57.994Z,17.43
2019-04-14T22:36:02.604Z,17.33
2019-04-14T22:41:08.310Z,16.30
2019-04-14T22:46:12.852Z,19.50
2019-04-14T22:51:18.934Z,16.20
2019-04-14T22:56:23.543Z,18.80
2019-04-14T23:01:29.766Z,20.77
2019-04-14T23:06:54.625Z,19.50
2019-04-14T23:17:27.269Z,21.83
2019-04-14T23:22:50.707Z,22.10
2019-04-14T23:27:55.239Z,18.40
2019-04-14T23:33:00.245Z,22.30
2019-04-14T23:38:04.876Z,21.23
2019-04-14T23:43:10.915Z,18.70
2019-04-14T23:48:15.616Z,19.63
2019-04-14T23:53:21.328Z,21.50
2019-04-14T23:58:26.603Z,21.93
